Time;durP1;ratioP1;P1;durP2;ratioP2;P2;SDS_P1;SDS_P2;PMS_P1;PMS_P2;Temp;Humidity;BMP_temperature;BMP_pressure;BME280_temperature;BME280_humidity;BME280_pressure;Samples;Min_cycle;Max_cycle;Signal;HPM_P1;HPM_P2
2023/07/05 00:00:31;;;;;;;5.27;4.80;;;;;;;;;;5013535;28;20650;-53
2023/07/05 00:02:58;;;;;;;5.50;4.93;;;;;;;;;;5013477;28;21035;-55
2023/07/05 00:05:26;;;;;;;7.70;5.43;;;;;;;;;;5013231;28;20994;-54
2023/07/05 00:07:54;;;;;;;6.67;5.23;;;;;;;;;;5013492;28;20539;-55
2023/07/05 00:10:21;;;;;;;7.10;5.90;;;;;;;;;;5013430;28;20492;-53
2023/07/05 00:12:50;;;;;;;6.00;5.40;;;;;;;;;;5013284;28;21015;-54
2023/07/05 00:15:17;;;;;;;9.03;5.00;;;;;;;;;;5013245;28;20488;-54
2023/07/05 00:17:44;;;;;;;6.83;5.20;;;;;;;;;;5013112;28;20864;-54
2023/07/05 00:20:11;;;;;;;5.77;5.20;;;;;;;;;;5013368;28;20543;-54
2023/07/05 00:22:39;;;;;;;5.93;5.43;;;;;;;;;;5013277;28;20452;-56
2023/07/05 00:25:06;;;;;;;5.87;5.47;;;;;;;;;;5013138;28;20849;-55
2023/07/05 00:27:33;;;;;;;5.53;5.00;;;;;;;;;;5013063;28;20523;-55
2023/07/05 00:30:00;;;;;;;7.90;5.87;;;;;;;;;;5012979;28;20550;-54
2023/07/05 00:32:27;;;;;;;6.23;5.73;;;;;;;;;;5012931;28;20546;-55
2023/07/05 00:34:54;;;;;;;5.70;5.20;;;;;;;;;;5013151;28;20887;-55
2023/07/05 00:37:21;;;;;;;7.93;5.27;;;;;;;;;;5012911;28;20539;-56
2023/07/05 00:39:49;;;;;;;5.60;5.10;;;;;;;;;;5013278;28;20454;-55
2023/07/05 00:42:17;;;;;;;5.50;5.00;;;;;;;;;;5012969;28;20965;-55
2023/07/05 00:44:51;;;;;;;5.30;4.80;;;;;;;;;;5012983;28;20857;-55
2023/07/05 00:47:23;;;;;;;5.47;4.90;;;;;;;;;;5013123;28;20486;-53
2023/07/05 00:49:50;;;;;;;7.83;5.70;;;;;;;;;;5013207;28;20459;-55
2023/07/05 00:52:17;;;;;;;5.03;4.57;;;;;;;;;;5012979;28;20535;-55
2023/07/05 00:54:46;;;;;;;6.20;4.60;;;;;;;;;;5012959;28;20510;-56
2023/07/05 00:57:17;;;;;;;8.73;5.73;;;;;;;;;;5012565;28;20587;-53
2023/07/05 00:59:49;;;;;;;6.47;5.10;;;;;;;;;;5014453;28;20459;-55
2023/07/05 01:02:16;;;;;;;5.57;5.03;;;;;;;;;;5016938;28;20887;-53
2023/07/05 01:04:44;;;;;;;5.07;4.57;;;;;;;;;;5016880;28;20559;-53
2023/07/05 01:07:11;;;;;;;5.87;5.43;;;;;;;;;;5016649;28;20488;-53
2023/07/05 01:09:39;;;;;;;5.90;5.40;;;;;;;;;;5016538;28;20537;-55
2023/07/05 01:12:10;;;;;;;6.40;5.40;;;;;;;;;;5016760;28;20530;-54
2023/07/05 01:14:43;;;;;;;5.60;5.10;;;;;;;;;;5016627;28;20455;-56
2023/07/05 01:17:12;;;;;;;7.30;5.00;;;;;;;;;;5016526;28;20467;-54
2023/07/05 01:19:59;;;;;;;6.27;5.63;;;;;;;;;;5016442;28;20479;-54
2023/07/05 01:22:34;;;;;;;5.40;4.90;;;;;;;;;;5010256;28;20939;-53
2023/07/05 01:25:11;;;;;;;5.60;5.00;;;;;;;;;;5016533;28;20904;-55
2023/07/05 01:27:54;;;;;;;5.80;5.40;;;;;;;;;;5016367;28;20490;-54
2023/07/05 01:30:40;;;;;;;6.07;5.50;;;;;;;;;;5016144;28;20947;-55
2023/07/05 01:33:10;;;;;;;5.67;5.17;;;;;;;;;;5016314;28;20459;-55
2023/07/05 01:35:41;;;;;;;6.93;5.17;;;;;;;;;;5016211;28;20458;-55
2023/07/05 01:38:09;;;;;;;6.57;5.50;;;;;;;;;;5016213;28;20447;-55
2023/07/05 01:40:53;;;;;;;7.00;5.50;;;;;;;;;;5016088;28;20931;-55
2023/07/05 01:43:20;;;;;;;6.10;4.57;;;;;;;;;;5016228;28;20538;-54
2023/07/05 01:45:51;;;;;;;5.67;5.17;;;;;;;;;;5015974;28;20889;-55
2023/07/05 01:48:25;;;;;;;6.17;5.60;;;;;;;;;;5016019;28;20544;-54
2023/07/05 01:50:56;;;;;;;6.53;5.47;;;;;;;;;;5015850;28;20546;-54
2023/07/05 01:53:26;;;;;;;9.90;5.30;;;;;;;;;;5015765;28;20553;-52
2023/07/05 01:55:58;;;;;;;5.53;4.90;;;;;;;;;;5015739;28;21045;-55
2023/07/05 01:58:29;;;;;;;6.83;5.23;;;;;;;;;;5015859;28;20539;-55
2023/07/05 02:00:57;;;;;;;5.53;5.03;;;;;;;;;;5015633;28;20466;-55
2023/07/05 02:03:29;;;;;;;8.03;5.53;;;;;;;;;;5015621;28;20546;-55
2023/07/05 02:05:56;;;;;;;6.13;5.63;;;;;;;;;;5015508;28;20911;-56
2023/07/05 02:08:26;;;;;;;5.47;5.07;;;;;;;;;;5015466;28;20475;-55
2023/07/05 02:10:52;;;;;;;5.80;5.00;;;;;;;;;;5014234;28;20458;-56
2023/07/05 02:13:19;;;;;;;6.73;5.37;;;;;;;;;;5015541;28;20493;-55
2023/07/05 02:15:48;;;;;;;5.53;5.13;;;;;;;;;;5015397;28;20456;-55
2023/07/05 02:18:15;;;;;;;5.97;5.40;;;;;;;;;;5015359;28;20454;-55
2023/07/05 02:20:44;;;;;;;6.40;4.63;;;;;;;;;;5015204;28;20779;-55
2023/07/05 02:23:11;;;;;;;4.50;4.20;;;;;;;;;;5015376;28;20534;-56
2023/07/05 02:25:38;;;;;;;9.53;5.50;;;;;;;;;;5015307;28;20513;-52
2023/07/05 02:28:06;;;;;;;6.20;4.40;;;;;;;;;;5015149;28;20487;-55
2023/07/05 02:30:35;;;;;;;5.37;4.50;;;;;;;;;;5015209;28;20493;-54
2023/07/05 02:33:04;;;;;;;4.87;4.57;;;;;;;;;;5015156;28;20466;-55
2023/07/05 02:35:33;;;;;;;6.80;5.13;;;;;;;;;;5015247;28;20542;-53
2023/07/05 02:38:01;;;;;;;5.53;4.97;;;;;;;;;;5015084;28;20546;-55
2023/07/05 02:40:28;;;;;;;7.40;4.77;;;;;;;;;;5014997;28;20549;-55
2023/07/05 02:42:55;;;;;;;4.77;4.37;;;;;;;;;;5014760;28;20461;-53
2023/07/05 02:45:22;;;;;;;5.90;5.30;;;;;;;;;;5014912;28;20452;-57
2023/07/05 02:47:49;;;;;;;7.37;4.60;;;;;;;;;;5014714;28;20925;-57
2023/07/05 02:50:17;;;;;;;5.07;4.47;;;;;;;;;;5014888;28;20546;-54
2023/07/05 02:52:44;;;;;;;5.23;4.60;;;;;;;;;;5014816;28;20457;-57
2023/07/05 02:55:12;;;;;;;5.07;4.43;;;;;;;;;;5014767;28;20546;-57
2023/07/05 02:57:39;;;;;;;4.27;3.97;;;;;;;;;;5014496;28;20911;-57
2023/07/05 03:00:07;;;;;;;5.50;5.00;;;;;;;;;;5014404;28;20483;-55
2023/07/05 03:02:33;;;;;;;6.37;5.27;;;;;;;;;;5014727;28;20780;-57
2023/07/05 03:05:08;;;;;;;5.70;4.63;;;;;;;;;;5014628;28;20563;-55
2023/07/05 03:07:35;;;;;;;6.40;5.47;;;;;;;;;;5014550;28;20577;-56
2023/07/05 03:10:02;;;;;;;7.77;5.30;;;;;;;;;;5014382;28;20466;-57
2023/07/05 03:12:30;;;;;;;5.20;4.70;;;;;;;;;;5014251;28;20972;-57
2023/07/05 03:14:58;;;;;;;7.27;5.57;;;;;;;;;;5014274;28;20462;-57
2023/07/05 03:17:25;;;;;;;5.60;4.97;;;;;;;;;;5014478;28;20452;-56
2023/07/05 03:19:56;;;;;;;5.27;4.77;;;;;;;;;;5014285;28;20518;-57
2023/07/05 03:22:23;;;;;;;5.93;4.60;;;;;;;;;;5014019;28;20619;-57
2023/07/05 03:24:51;;;;;;;7.10;4.87;;;;;;;;;;5014138;28;21015;-56
2023/07/05 03:27:18;;;;;;;5.73;4.47;;;;;;;;;;5013869;28;20482;-55
2023/07/05 03:29:46;;;;;;;6.73;4.10;;;;;;;;;;5014154;28;20534;-57
2023/07/05 03:32:13;;;;;;;5.77;5.07;;;;;;;;;;5014102;28;20868;-55
2023/07/05 03:34:40;;;;;;;9.90;4.53;;;;;;;;;;5014031;28;20545;-58
2023/07/05 03:37:07;;;;;;;7.67;5.40;;;;;;;;;;5013955;28;20454;-57
2023/07/05 03:39:34;;;;;;;6.37;5.00;;;;;;;;;;5013906;28;21027;-56
2023/07/05 03:42:02;;;;;;;5.90;5.40;;;;;;;;;;5013673;28;20538;-57
2023/07/05 03:44:29;;;;;;;7.77;4.80;;;;;;;;;;5013884;28;20449;-58
2023/07/05 03:46:57;;;;;;;4.57;4.17;;;;;;;;;;5013867;28;20514;-57
2023/07/05 03:49:24;;;;;;;7.50;4.70;;;;;;;;;;5013917;28;20482;-56
2023/07/05 03:51:51;;;;;;;7.50;4.57;;;;;;;;;;5013755;28;20543;-56
2023/07/05 03:54:18;;;;;;;5.23;4.40;;;;;;;;;;5014061;28;20451;-56
2023/07/05 03:56:45;;;;;;;8.20;4.60;;;;;;;;;;5013624;28;20478;-57
2023/07/05 03:59:13;;;;;;;5.80;4.43;;;;;;;;;;5013354;28;20938;-57
2023/07/05 04:01:40;;;;;;;5.07;4.60;;;;;;;;;;5013588;28;20489;-57
2023/07/05 04:04:09;;;;;;;5.13;4.33;;;;;;;;;;5013493;28;20456;-56
2023/07/05 04:06:36;;;;;;;4.80;4.40;;;;;;;;;;5013322;28;20537;-57
2023/07/05 04:09:03;;;;;;;5.00;4.47;;;;;;;;;;5013415;28;20541;-57
2023/07/05 04:11:31;;;;;;;5.30;4.80;;;;;;;;;;5013422;28;20505;-54
2023/07/05 04:13:58;;;;;;;5.63;4.27;;;;;;;;;;5013537;28;20467;-57
2023/07/05 04:16:25;;;;;;;5.53;4.40;;;;;;;;;;5013071;28;20529;-57
2023/07/05 04:18:53;;;;;;;5.30;4.37;;;;;;;;;;5013193;28;20889;-54
2023/07/05 04:21:22;;;;;;;4.77;3.83;;;;;;;;;;5012952;28;20539;-56
2023/07/05 04:23:49;;;;;;;7.10;4.40;;;;;;;;;;5013381;28;20446;-57
2023/07/05 04:26:17;;;;;;;5.17;4.53;;;;;;;;;;5013279;28;20451;-57
2023/07/05 04:28:44;;;;;;;5.90;4.43;;;;;;;;;;5013124;28;20493;-55
2023/07/05 04:31:15;;;;;;;4.53;4.13;;;;;;;;;;5013089;28;20864;-56
2023/07/05 04:33:42;;;;;;;9.50;5.90;;;;;;;;;;5012376;28;20447;-57
2023/07/05 04:36:09;;;;;;;8.90;5.03;;;;;;;;;;5012798;28;20463;-55
2023/07/05 04:38:37;;;;;;;4.87;4.40;;;;;;;;;;5012996;28;20544;-56
2023/07/05 04:41:04;;;;;;;5.93;4.80;;;;;;;;;;5013013;28;20542;-57
2023/07/05 04:43:33;;;;;;;5.10;4.60;;;;;;;;;;5013040;28;20494;-57
2023/07/05 04:46:01;;;;;;;4.63;4.23;;;;;;;;;;5012930;28;20537;-51
2023/07/05 04:48:29;;;;;;;8.30;4.50;;;;;;;;;;5012639;28;20848;-57
2023/07/05 04:50:57;;;;;;;4.93;4.50;;;;;;;;;;5013302;28;20463;-57
2023/07/05 04:53:25;;;;;;;5.57;3.67;;;;;;;;;;5013146;28;20454;-56
2023/07/05 04:55:56;;;;;;;7.73;4.90;;;;;;;;;;5012951;28;20481;-53
2023/07/05 04:58:26;;;;;;;12.03;5.80;;;;;;;;;;5012944;28;20550;-54
2023/07/05 05:00:53;;;;;;;5.53;4.53;;;;;;;;;;5012645;28;20455;-56
2023/07/05 05:03:23;;;;;;;5.53;4.63;;;;;;;;;;5012691;28;20898;-55
2023/07/05 05:05:52;;;;;;;4.70;4.30;;;;;;;;;;5012684;28;20873;-54
2023/07/05 05:08:19;;;;;;;4.73;4.33;;;;;;;;;;5012639;28;20578;-54
2023/07/05 05:10:48;;;;;;;4.47;4.07;;;;;;;;;;5012648;28;20455;-54
2023/07/05 05:13:17;;;;;;;4.33;3.87;;;;;;;;;;5012703;28;20793;-56
2023/07/05 05:15:43;;;;;;;4.70;4.30;;;;;;;;;;5012511;28;20918;-57
2023/07/05 05:18:11;;;;;;;10.27;4.40;;;;;;;;;;5012493;28;20535;-55
2023/07/05 05:20:39;;;;;;;3.97;3.77;;;;;;;;;;5012714;28;20567;-57
2023/07/05 05:23:06;;;;;;;4.90;4.00;;;;;;;;;;5012324;28;20451;-57
2023/07/05 05:25:34;;;;;;;8.33;4.70;;;;;;;;;;5012472;28;20543;-57
2023/07/05 05:28:01;;;;;;;8.67;4.43;;;;;;;;;;5012235;28;20570;-55
2023/07/05 05:30:31;;;;;;;7.47;4.40;;;;;;;;;;5012635;28;20539;-57
2023/07/05 05:32:58;;;;;;;4.40;3.73;;;;;;;;;;5012394;28;20486;-57
2023/07/05 05:35:27;;;;;;;4.97;4.43;;;;;;;;;;5012467;28;20544;-57
2023/07/05 05:37:54;;;;;;;7.20;4.63;;;;;;;;;;5012480;28;20464;-57
2023/07/05 05:40:21;;;;;;;6.10;4.40;;;;;;;;;;5012388;28;20969;-54
2023/07/05 05:42:48;;;;;;;6.73;4.00;;;;;;;;;;5012295;28;20985;-57
2023/07/05 05:45:17;;;;;;;4.67;4.10;;;;;;;;;;5013050;28;20463;-55
2023/07/05 05:47:45;;;;;;;4.30;3.90;;;;;;;;;;5015581;28;20531;-57
2023/07/05 05:50:14;;;;;;;4.40;4.10;;;;;;;;;;5015608;28;20535;-57
2023/07/05 05:52:42;;;;;;;4.73;4.23;;;;;;;;;;5015939;28;20495;-55
2023/07/05 05:55:09;;;;;;;4.33;3.93;;;;;;;;;;5015567;28;20540;-57
2023/07/05 05:57:36;;;;;;;4.90;4.40;;;;;;;;;;5015357;28;20503;-57
2023/07/05 06:00:03;;;;;;;5.00;4.50;;;;;;;;;;5015730;28;20453;-58
2023/07/05 06:02:30;;;;;;;5.13;4.63;;;;;;;;;;5015559;28;20937;-57
2023/07/05 06:04:58;;;;;;;5.07;4.53;;;;;;;;;;5015486;28;20541;-55
2023/07/05 06:07:27;;;;;;;7.10;4.07;;;;;;;;;;5015151;28;20548;-54
2023/07/05 06:09:54;;;;;;;6.03;4.73;;;;;;;;;;5015305;28;20840;-58
2023/07/05 06:12:21;;;;;;;5.60;5.10;;;;;;;;;;5015569;28;20454;-56
2023/07/05 06:14:48;;;;;;;7.93;5.37;;;;;;;;;;5015447;28;20548;-56
2023/07/05 06:17:15;;;;;;;9.90;5.13;;;;;;;;;;5015407;28;20537;-55
2023/07/05 06:19:42;;;;;;;10.30;5.50;;;;;;;;;;5015347;28;20548;-56
2023/07/05 06:22:10;;;;;;;6.00;5.40;;;;;;;;;;5015095;28;21028;-57
2023/07/05 06:24:37;;;;;;;6.27;4.73;;;;;;;;;;5015420;28;20547;-57
2023/07/05 06:27:04;;;;;;;6.90;5.10;;;;;;;;;;5015283;28;20545;-56
2023/07/05 06:29:31;;;;;;;8.30;4.57;;;;;;;;;;5014970;28;20497;-56
2023/07/05 06:31:58;;;;;;;5.73;5.20;;;;;;;;;;5015072;28;20896;-57
2023/07/05 06:34:25;;;;;;;10.23;6.27;;;;;;;;;;5015024;28;20454;-56
2023/07/05 06:36:52;;;;;;;7.83;5.83;;;;;;;;;;5014849;28;20457;-56
2023/07/05 06:39:20;;;;;;;6.40;5.57;;;;;;;;;;5015012;28;20484;-57
2023/07/05 06:41:47;;;;;;;9.77;5.87;;;;;;;;;;5014962;28;20889;-56
2023/07/05 06:44:14;;;;;;;12.50;7.00;;;;;;;;;;5014898;28;20449;-54
2023/07/05 06:46:41;;;;;;;7.67;6.07;;;;;;;;;;5014778;28;20552;-57
2023/07/05 06:49:08;;;;;;;9.57;5.93;;;;;;;;;;5014544;28;20513;-57
2023/07/05 06:51:35;;;;;;;8.93;6.73;;;;;;;;;;5014798;28;20615;-56
2023/07/05 06:54:02;;;;;;;8.80;6.30;;;;;;;;;;5014808;28;20453;-57
2023/07/05 06:56:30;;;;;;;7.00;6.30;;;;;;;;;;5013541;28;21087;-56
2023/07/05 06:58:57;;;;;;;10.83;5.73;;;;;;;;;;5014224;28;20856;-55
2023/07/05 07:01:24;;;;;;;7.60;6.60;;;;;;;;;;5014525;28;20537;-55
2023/07/05 07:03:51;;;;;;;6.17;5.50;;;;;;;;;;5013346;28;20871;-56
2023/07/05 07:06:18;;;;;;;6.97;5.63;;;;;;;;;;5023548;28;20453;-56
2023/07/05 07:08:45;;;;;;;10.17;7.37;;;;;;;;;;5026962;28;20568;-54
2023/07/05 07:11:12;;;;;;;10.07;7.50;;;;;;;;;;5021187;28;20893;-56
2023/07/05 07:13:41;;;;;;;8.20;7.20;;;;;;;;;;5023801;28;20543;-58
2023/07/05 07:16:08;;;;;;;10.30;7.33;;;;;;;;;;5021859;28;20538;-59
2023/07/05 07:18:37;;;;;;;9.30;7.40;;;;;;;;;;5022686;28;20457;-56
2023/07/05 07:21:04;;;;;;;8.90;7.20;;;;;;;;;;5023206;28;20448;-58
2023/07/05 07:23:33;;;;;;;10.30;8.00;;;;;;;;;;5021703;28;20546;-57
2023/07/05 07:26:01;;;;;;;10.63;7.90;;;;;;;;;;5022107;28;20476;-59
2023/07/05 07:28:28;;;;;;;12.00;8.87;;;;;;;;;;5022673;28;20467;-58
2023/07/05 07:30:57;;;;;;;10.73;9.60;;;;;;;;;;5021607;28;20457;-58
2023/07/05 07:33:24;;;;;;;13.93;9.90;;;;;;;;;;5021648;28;20497;-59
2023/07/05 07:35:54;;;;;;;10.70;9.30;;;;;;;;;;5029097;28;20450;-59
2023/07/05 07:38:21;;;;;;;10.18;9.07;;;;;;;;;;5020683;28;20547;-59
2023/07/05 07:40:48;;;;;;;11.40;9.03;;;;;;;;;;5023560;28;20224;-59
2023/07/05 07:43:15;;;;;;;11.73;9.07;;;;;;;;;;5022062;28;20859;-58
2023/07/05 07:45:43;;;;;;;9.70;8.27;;;;;;;;;;5030595;28;20890;-58
2023/07/05 07:48:11;;;;;;;11.00;8.47;;;;;;;;;;5028292;28;20469;-57
2023/07/05 07:50:38;;;;;;;10.23;9.33;;;;;;;;;;5024012;28;20446;-57
2023/07/05 07:53:07;;;;;;;10.60;9.00;;;;;;;;;;5022247;28;20534;-56
2023/07/05 07:55:34;;;;;;;10.33;8.70;;;;;;;;;;5022030;28;20456;-56
2023/07/05 07:58:02;;;;;;;9.07;7.90;;;;;;;;;;5015833;28;20537;-55
2023/07/05 08:00:31;;;;;;;9.50;8.50;;;;;;;;;;5013512;28;21014;-55
2023/07/05 08:02:57;;;;;;;10.60;8.73;;;;;;;;;;5013211;28;20455;-58
2023/07/05 08:05:26;;;;;;;10.13;9.10;;;;;;;;;;5013253;28;20546;-58
2023/07/05 08:07:54;;;;;;;10.20;9.10;;;;;;;;;;5013280;28;20455;-58
2023/07/05 08:10:21;;;;;;;12.63;8.80;;;;;;;;;;5013117;28;20478;-58
2023/07/05 08:12:48;;;;;;;9.50;8.60;;;;;;;;;;5013061;28;20455;-58
2023/07/05 08:15:16;;;;;;;12.27;9.80;;;;;;;;;;5013414;28;20454;-58
2023/07/05 08:17:42;;;;;;;15.80;10.10;;;;;;;;;;5016722;28;20549;-58
2023/07/05 08:20:13;;;;;;;13.60;10.23;;;;;;;;;;5019871;28;20542;-56
2023/07/05 08:22:41;;;;;;;12.17;9.73;;;;;;;;;;5013286;28;20541;-56
2023/07/05 08:25:08;;;;;;;11.00;9.80;;;;;;;;;;5026516;28;20521;-56
2023/07/05 08:27:35;;;;;;;11.93;10.53;;;;;;;;;;5032553;28;20878;-57
2023/07/05 08:30:04;;;;;;;11.80;9.97;;;;;;;;;;5032828;28;20485;-57
2023/07/05 08:32:31;;;;;;;11.73;10.40;;;;;;;;;;5032853;28;20454;-57
2023/07/05 08:34:58;;;;;;;16.67;11.00;;;;;;;;;;5030450;28;20540;-56
2023/07/05 08:37:25;;;;;;;10.87;9.87;;;;;;;;;;5027073;28;20445;-57
2023/07/05 08:39:53;;;;;;;16.23;10.70;;;;;;;;;;5032390;28;20533;-58
2023/07/05 08:42:30;;;;;;;12.10;10.60;;;;;;;;;;5027769;28;20537;-56
2023/07/05 08:45:00;;;;;;;14.43;11.77;;;;;;;;;;5012935;28;20938;-55
2023/07/05 08:47:30;;;;;;;11.97;10.87;;;;;;;;;;5012972;28;20457;-55
2023/07/05 08:50:03;;;;;;;15.07;10.10;;;;;;;;;;5013712;28;20483;-57
2023/07/05 08:52:38;;;;;;;12.07;10.80;;;;;;;;;;5021953;28;20461;-57
2023/07/05 08:55:09;;;;;;;13.30;10.50;;;;;;;;;;5022217;28;20803;-55
2023/07/05 08:57:40;;;;;;;12.10;9.70;;;;;;;;;;5015816;28;20474;-58
2023/07/05 09:00:11;;;;;;;18.13;10.63;;;;;;;;;;5012647;28;20535;-58
2023/07/05 09:02:38;;;;;;;11.17;9.50;;;;;;;;;;5022139;28;20799;-56
2023/07/05 09:05:10;;;;;;;14.33;9.10;;;;;;;;;;5032554;28;20445;-57
2023/07/05 09:07:43;;;;;;;12.50;9.03;;;;;;;;;;5032368;28;20536;-56
2023/07/05 09:10:13;;;;;;;11.70;10.07;;;;;;;;;;5029273;28;20537;-58
2023/07/05 09:12:44;;;;;;;10.60;7.73;;;;;;;;;;5022631;28;20544;-56
2023/07/05 09:15:16;;;;;;;8.30;7.23;;;;;;;;;;5022180;28;20545;-56
2023/07/05 09:17:53;;;;;;;7.80;6.97;;;;;;;;;;5026960;28;20445;-58
2023/07/05 09:20:24;;;;;;;8.83;7.43;;;;;;;;;;5033200;28;20456;-57
2023/07/05 09:22:53;;;;;;;6.50;5.90;;;;;;;;;;5036546;28;20489;-57
2023/07/05 09:25:22;;;;;;;8.10;7.40;;;;;;;;;;5035726;28;20820;-56
2023/07/05 09:27:51;;;;;;;8.70;7.33;;;;;;;;;;5029651;28;20454;-55
2023/07/05 09:30:24;;;;;;;7.63;6.83;;;;;;;;;;5026966;28;20553;-57
2023/07/05 09:32:55;;;;;;;7.70;6.90;;;;;;;;;;5024738;28;20455;-56
2023/07/05 09:35:24;;;;;;;9.80;6.63;;;;;;;;;;5025113;28;20445;-56
2023/07/05 09:37:54;;;;;;;7.60;6.70;;;;;;;;;;5024469;28;20446;-57
2023/07/05 09:40:25;;;;;;;7.10;6.13;;;;;;;;;;5035697;28;20460;-57
2023/07/05 09:42:54;;;;;;;7.40;6.70;;;;;;;;;;5035849;28;20464;-57
2023/07/05 09:45:21;;;;;;;8.00;6.60;;;;;;;;;;5035790;28;20450;-56
2023/07/05 09:47:51;;;;;;;9.73;5.83;;;;;;;;;;5026747;28;20517;-56
2023/07/05 09:50:19;;;;;;;10.33;7.33;;;;;;;;;;5024058;28;20470;-56
2023/07/05 09:52:47;;;;;;;6.47;5.83;;;;;;;;;;5025568;28;20449;-57
2023/07/05 09:55:16;;;;;;;8.33;6.37;;;;;;;;;;5021088;28;20447;-57
2023/07/05 09:57:45;;;;;;;8.07;6.70;;;;;;;;;;5015783;28;20446;-57
2023/07/05 10:00:22;;;;;;;7.63;6.87;;;;;;;;;;5015629;28;20958;-57
2023/07/05 10:02:49;;;;;;;6.83;6.23;;;;;;;;;;5015534;28;20488;-56
2023/07/05 10:05:21;;;;;;;7.77;6.97;;;;;;;;;;5015469;28;20539;-56
2023/07/05 10:07:56;;;;;;;9.20;5.87;;;;;;;;;;5015446;28;20538;-57
2023/07/05 10:10:29;;;;;;;5.37;4.87;;;;;;;;;;5015255;28;20544;-55
2023/07/05 10:13:03;;;;;;;5.83;5.33;;;;;;;;;;5015520;28;20834;-56
2023/07/05 10:15:30;;;;;;;5.63;4.20;;;;;;;;;;5015313;28;20493;-52
2023/07/05 10:17:57;;;;;;;4.23;3.83;;;;;;;;;;5015609;28;20790;-50
2023/07/05 10:20:26;;;;;;;3.73;3.43;;;;;;;;;;5014975;28;20459;-54
2023/07/05 10:23:01;;;;;;;4.00;3.70;;;;;;;;;;5015263;28;20451;-51
2023/07/05 10:25:30;;;;;;;4.33;3.80;;;;;;;;;;5015046;28;20457;-54
2023/07/05 10:28:00;;;;;;;4.77;3.57;;;;;;;;;;5014810;28;20565;-52
2023/07/05 10:30:29;;;;;;;3.63;3.33;;;;;;;;;;5014920;28;20486;-55
2023/07/05 10:33:09;;;;;;;3.60;3.30;;;;;;;;;;5013867;28;20455;-53
2023/07/05 10:35:45;;;;;;;3.77;3.30;;;;;;;;;;5015016;28;20455;-53
2023/07/05 10:38:19;;;;;;;5.50;3.90;;;;;;;;;;5014892;28;20857;-51
2023/07/05 10:40:47;;;;;;;3.20;2.90;;;;;;;;;;5014616;28;20524;-53
2023/07/05 10:43:14;;;;;;;3.53;2.60;;;;;;;;;;5014924;28;20450;-54
2023/07/05 10:45:42;;;;;;;3.40;2.50;;;;;;;;;;5014621;28;20474;-55
2023/07/05 10:48:16;;;;;;;2.40;2.20;;;;;;;;;;5016988;28;20538;-52
2023/07/05 10:50:44;;;;;;;3.23;2.83;;;;;;;;;;5023625;28;21057;-53
2023/07/05 10:53:13;;;;;;;3.10;2.80;;;;;;;;;;5023036;28;20530;-54
2023/07/05 10:55:42;;;;;;;2.60;2.40;;;;;;;;;;5014315;28;20978;-57
2023/07/05 10:58:14;;;;;;;2.90;2.30;;;;;;;;;;5019646;28;20534;-55
2023/07/05 11:00:46;;;;;;;2.47;2.37;;;;;;;;;;5023644;28;20548;-58
2023/07/05 11:03:16;;;;;;;3.43;2.40;;;;;;;;;;5022848;28;20889;-58
2023/07/05 11:05:45;;;;;;;2.10;1.90;;;;;;;;;;5034075;28;20520;-57
2023/07/05 11:08:19;;;;;;;5.93;2.00;;;;;;;;;;5033937;28;20493;-57
2023/07/05 11:10:47;;;;;;;2.47;2.00;;;;;;;;;;5034069;28;20581;-57
2023/07/05 11:13:15;;;;;;;2.50;2.30;;;;;;;;;;5033783;28;20492;-53
2023/07/05 11:15:44;;;;;;;1.70;1.60;;;;;;;;;;5033781;28;20556;-58
2023/07/05 11:18:14;;;;;;;2.70;2.50;;;;;;;;;;5033777;28;20466;-58
2023/07/05 11:20:46;;;;;;;2.10;1.83;;;;;;;;;;5027969;28;20482;-58
2023/07/05 11:23:14;;;;;;;1.77;1.67;;;;;;;;;;5023242;28;20450;-57
2023/07/05 11:26:00;;;;;;;2.77;2.00;;;;;;;;;;5022005;28;20451;-58
2023/07/05 11:28:34;;;;;;;2.50;2.10;;;;;;;;;;5013773;28;20962;-51
2023/07/05 11:31:02;;;;;;;2.13;1.90;;;;;;;;;;5013907;28;20898;-55
2023/07/05 11:33:29;;;;;;;2.80;2.10;;;;;;;;;;5013631;28;20541;-57
2023/07/05 11:35:57;;;;;;;1.97;1.83;;;;;;;;;;5013707;28;20545;-57
2023/07/05 11:38:43;;;;;;;2.47;2.10;;;;;;;;;;5013719;28;20451;-57
2023/07/05 11:41:12;;;;;;;2.27;2.07;;;;;;;;;;5013523;28;20461;-56
2023/07/05 11:43:41;;;;;;;1.90;1.80;;;;;;;;;;5013564;28;20537;-55
2023/07/05 11:46:22;;;;;;;2.60;1.90;;;;;;;;;;5013745;28;20454;-57
2023/07/05 11:48:51;;;;;;;2.20;2.10;;;;;;;;;;5012645;28;20482;-57
2023/07/05 11:51:28;;;;;;;1.90;1.80;;;;;;;;;;5013360;28;20860;-58
2023/07/05 11:53:59;;;;;;;2.13;2.03;;;;;;;;;;5013455;28;20711;-56
2023/07/05 11:56:26;;;;;;;3.50;2.10;;;;;;;;;;5013397;28;20487;-58
2023/07/05 11:58:55;;;;;;;2.80;2.40;;;;;;;;;;5022594;28;20451;-58
2023/07/05 12:01:27;;;;;;;3.10;2.17;;;;;;;;;;5022097;28;20453;-56
2023/07/05 12:03:58;;;;;;;3.10;2.50;;;;;;;;;;5012921;28;20533;-55
2023/07/05 12:06:27;;;;;;;2.60;2.23;;;;;;;;;;5013008;28;20446;-56
2023/07/05 12:08:56;;;;;;;3.93;2.10;;;;;;;;;;5012791;28;20457;-56
2023/07/05 12:11:41;;;;;;;3.17;2.57;;;;;;;;;;5012788;28;21085;-56
2023/07/05 12:14:10;;;;;;;2.37;2.17;;;;;;;;;;5016685;28;20532;-57
2023/07/05 12:16:37;;;;;;;7.77;2.63;;;;;;;;;;5022161;28;20478;-56
2023/07/05 12:19:07;;;;;;;3.73;2.43;;;;;;;;;;5019090;28;20497;-55
2023/07/05 12:21:35;;;;;;;2.87;2.30;;;;;;;;;;5013260;28;20455;-56
2023/07/05 12:24:04;;;;;;;3.40;2.27;;;;;;;;;;5013045;28;20483;-56
2023/07/05 12:26:32;;;;;;;2.80;1.80;;;;;;;;;;5012948;28;20447;-54
2023/07/05 12:29:00;;;;;;;5.70;1.97;;;;;;;;;;5012816;28;20958;-55
2023/07/05 12:31:27;;;;;;;3.43;1.90;;;;;;;;;;5013092;28;20572;-56
2023/07/05 12:33:55;;;;;;;3.90;1.83;;;;;;;;;;5013056;28;20458;-58
2023/07/05 12:36:24;;;;;;;2.50;1.60;;;;;;;;;;5013013;28;20509;-58
2023/07/05 12:38:52;;;;;;;2.03;1.43;;;;;;;;;;5020469;28;20449;-56
2023/07/05 12:41:20;;;;;;;1.30;1.20;;;;;;;;;;5022741;28;20450;-56
2023/07/05 12:43:48;;;;;;;1.93;1.83;;;;;;;;;;5012633;28;20469;-57
2023/07/05 12:46:16;;;;;;;3.67;1.57;;;;;;;;;;5012698;28;20446;-57
2023/07/05 12:48:43;;;;;;;1.77;1.40;;;;;;;;;;5012068;28;20450;-54
2023/07/05 12:51:14;;;;;;;2.03;1.67;;;;;;;;;;5012299;28;20505;-54
2023/07/05 12:53:43;;;;;;;1.67;1.30;;;;;;;;;;5012382;28;20541;-55
2023/07/05 12:56:11;;;;;;;1.73;1.60;;;;;;;;;;5014212;28;20474;-55
2023/07/05 12:58:39;;;;;;;1.70;1.60;;;;;;;;;;5034502;28;20473;-56
2023/07/05 13:01:06;;;;;;;1.67;1.57;;;;;;;;;;5036661;28;20813;-57
2023/07/05 13:03:34;;;;;;;1.70;1.60;;;;;;;;;;5036528;28;20455;-56
2023/07/05 13:06:01;;;;;;;3.47;2.00;;;;;;;;;;5026037;28;20508;-56
2023/07/05 13:08:29;;;;;;;2.27;1.80;;;;;;;;;;5016534;28;20454;-57
2023/07/05 13:10:57;;;;;;;2.23;1.30;;;;;;;;;;5016799;28;20894;-56
2023/07/05 13:13:26;;;;;;;1.93;1.60;;;;;;;;;;5032583;28;20449;-57
2023/07/05 13:15:53;;;;;;;3.07;1.87;;;;;;;;;;5036277;28;20553;-56
2023/07/05 13:18:38;;;;;;;6.10;1.77;;;;;;;;;;5036119;28;20884;-56
2023/07/05 13:21:09;;;;;;;4.27;1.60;;;;;;;;;;5036048;28;20456;-56
2023/07/05 13:23:36;;;;;;;1.80;1.27;;;;;;;;;;5036299;28;20449;-56
2023/07/05 13:26:04;;;;;;;3.70;1.97;;;;;;;;;;5036270;28;20947;-57
2023/07/05 13:28:32;;;;;;;1.87;1.67;;;;;;;;;;5036265;28;20457;-57
2023/07/05 13:31:01;;;;;;;5.00;2.03;;;;;;;;;;5036000;28;20892;-56
2023/07/05 13:33:28;;;;;;;3.53;1.80;;;;;;;;;;5035807;28;20933;-57
2023/07/05 13:35:55;;;;;;;3.07;1.80;;;;;;;;;;5036345;28;20552;-55
2023/07/05 13:38:23;;;;;;;1.83;1.40;;;;;;;;;;5035954;28;20790;-56
2023/07/05 13:40:51;;;;;;;39.77;4.70;;;;;;;;;;5035669;28;20457;-56
2023/07/05 13:43:20;;;;;;;5.83;2.00;;;;;;;;;;5035785;28;20487;-56
2023/07/05 13:45:47;;;;;;;2.33;1.53;;;;;;;;;;5035896;28;20953;-57
2023/07/05 13:48:14;;;;;;;2.40;1.57;;;;;;;;;;5035860;28;20448;-56
2023/07/05 13:50:41;;;;;;;2.20;1.53;;;;;;;;;;5035804;28;20508;-57
2023/07/05 13:53:14;;;;;;;1.43;1.33;;;;;;;;;;5035695;28;20785;-56
2023/07/05 13:55:41;;;;;;;2.07;1.63;;;;;;;;;;5035342;28;20473;-56
2023/07/05 13:58:11;;;;;;;2.70;1.60;;;;;;;;;;5035422;28;20460;-56
2023/07/05 14:00:40;;;;;;;2.53;1.90;;;;;;;;;;5035434;28;20744;-57
2023/07/05 14:03:07;;;;;;;3.77;2.00;;;;;;;;;;5035618;28;20449;-57
2023/07/05 14:05:33;;;;;;;2.53;2.00;;;;;;;;;;5035513;28;20481;-56
2023/07/05 14:08:01;;;;;;;2.90;2.27;;;;;;;;;;5035365;28;20454;-57
2023/07/05 14:10:29;;;;;;;2.20;2.10;;;;;;;;;;5035166;28;21016;-57
2023/07/05 14:12:56;;;;;;;3.30;2.40;;;;;;;;;;5035178;28;20460;-57
2023/07/05 14:15:25;;;;;;;2.33;1.90;;;;;;;;;;5035400;28;20472;-57
2023/07/05 14:17:53;;;;;;;3.63;2.20;;;;;;;;;;5035289;28;20446;-56
2023/07/05 14:20:20;;;;;;;3.50;2.63;;;;;;;;;;5035233;28;20564;-57
2023/07/05 14:22:47;;;;;;;4.60;2.97;;;;;;;;;;5035059;28;20454;-57
2023/07/05 14:25:16;;;;;;;2.70;2.10;;;;;;;;;;5034966;28;20739;-56
2023/07/05 14:27:43;;;;;;;3.27;2.40;;;;;;;;;;5034822;28;20813;-56
2023/07/05 14:30:10;;;;;;;4.10;2.47;;;;;;;;;;5034744;28;20464;-57
2023/07/05 14:32:37;;;;;;;2.40;2.20;;;;;;;;;;5035105;28;20876;-56
2023/07/05 14:35:11;;;;;;;2.10;2.00;;;;;;;;;;5034835;28;20445;-56
2023/07/05 14:37:38;;;;;;;2.30;2.20;;;;;;;;;;5035108;28;20485;-56
2023/07/05 14:40:05;;;;;;;2.47;2.27;;;;;;;;;;5034636;28;20906;-56
2023/07/05 14:42:32;;;;;;;2.73;2.53;;;;;;;;;;5034926;28;20552;-56
2023/07/05 14:44:59;;;;;;;2.73;2.53;;;;;;;;;;5034646;28;20486;-57
2023/07/05 14:47:26;;;;;;;2.60;2.40;;;;;;;;;;5034598;28;20445;-56
2023/07/05 14:49:53;;;;;;;3.10;2.80;;;;;;;;;;5034840;28;20797;-54